Overview Statistics Trail Chart Weather Telemetry Raw packets
 

This is the latest recevied weather packets stored in our database for station/object KJ5FA-9. If no packets are shown the sender has not sent any weather packets the latest 10 day(s).

<< 8 9 10 11 12 13 14 >>
Time Temp. Humidity Pressure Rain* Wind** Luminosity Snow
1788151572 27.22° C 56% 1017.3 hPa 0 mm 0 m/s - -
1788150264 27.78° C 55% 1017.3 hPa 0 mm - - -
1788149772 27.78° C 55% 1017.1 hPa 0 mm 0 m/s - -
1788148765 27.78° C 55% 1017 hPa 0 mm - - -
1788147972 27.22° C 57% 1016.8 hPa 0 mm 0 m/s - -
1788147264 27.22° C 59% 1016.9 hPa 0 mm - - -
1788146172 26.67° C 61% 1016.9 hPa 0 mm 0 m/s - -
1788145764 27.22° C 63% 1016.8 hPa 0 mm - - -
1788144372 27.78° C 57% 1016.8 hPa 0 mm 0 m/s - -
1788144264 27.78° C 57% 1016.6 hPa 0 mm - - -
1788142764 28.33° C 54% 1016.3 hPa 0 mm - - -
1788142572 28.33° C 54% 1016.5 hPa 0 mm 0 m/s - -
1788141264 28.89° C 54% 1016.1 hPa 0 mm - - -
1788140772 28.89° C 54% 1015.9 hPa 0 mm 0 m/s - -
1788139764 29.44° C 51% 1015.8 hPa 0 mm - - -
1788138972 30° C 50% 1015.7 hPa 0 mm 0.45 m/s, 359° - -
1788138279 30.56° C 49% 1015.7 hPa 0 mm - - -
1788137172 31.11° C 45% 1015.5 hPa 0 mm 0.45 m/s, 330° - -
1788136764 31.67° C 44% 1015.4 hPa 0 mm - - -
1788135372 32.78° C 41% 1015.4 hPa 0 mm 0 m/s - -
1788135264 32.78° C 41% 1015.1 hPa 0 mm - - -
1788133764 33.33° C 39% 1015.4 hPa 0 mm - - -
1788133571 33.33° C 40% 1015.6 hPa 0 mm 0.45 m/s, 8° - -
1788132264 34.44° C 37% 1015.4 hPa 0 mm - - -
1788131771 34.44° C 37% 1015.2 hPa 0 mm 0 m/s - -

* Rain latest hour (hover to see other rain measurements)
** Current wind speed in m/s (hover to see current wind gust speed)